Ana Sayfa
METAR-TAF:

METAR-TAF

Havaalanları :

Can Tho Havaalanı

Cần Thơ, Vietnam

Enlem: 10-05-07N, Boylam: 105-42-43E, yükseklik: 3 m

Güncel hava durumu gözlemi

Rapor saat 23:30 UTC de 33 dakika önce yapıldı.
Sakin rüzgar
Sıcaklık 22°C
Nem 100%
Basınç 1013 hPa
Görüş mesafesi: 6000 m

METAR: VVCT 122330Z 00000KT 6000 NSC 22/22 Q1013 NOSIG

Saat: 07:03 (00:03 UTC)

Tahmin

Rapor saat 23:00 UTC de 1 saat ve 3 dakika önce yapıldı.
Ayın 13'si saat 00 UTC'den ayın 13'si saat 24 UTC'ye kadar geçerli Tahmin
Rüzgar değişken yönden 2 kt
Görüş mesafesi 10 km veya daha fazla
1500 ft yükseklikte parçalı bulutlu
4000 ft yükseklikte parçalı bulutlu
Dönüşüyor
ayın 13'si saat 05 UTC'den ayın 13'si saat 06 UTC'ye kadar
Rüzgar doğu/güneydoğudan 10 kt

TAF: VVCT 122300Z 1300/1324 VRB02KT 9999 SCT015 SCT040 BECMG 1305/1306 11010KT

4.000'den fazla havaalanı için hava durumu gözlemleri ve tahminleri (METAR ve TAF raporları).

Kullanılabilir istasyonlar harita üzerinde sarı ve kırmızı noktalarla gösterilir.

İstasyonun adını görmek için fareyi noktanın üzerinde gezdirin.

Sonrasında hava gözlem ve tahminlerini görmek için tıklayın.

Haritayı değiştirmek için: yaklaştırmak için siyah artı işaretli yeşil düğmeye ve uzaklaştırmak için de eksi işaretli düğmeye hızla tıklayın; bitişik haritalar için yeşil okları kullanın.


METAR-TAF: